Tallahassee, FL

2:46 PM EDT on July 05, 2015 (GMT -0400)
Hartsfield Elementary School WeatherSTEM | | Change Station
CLOSE
Current Station
Personal Weather Station
Location: Tallahassee, FL
Elevation: 203 ft
Nearby Weather Stations

Elev 203 ft 30.43 °N, 84.26 °W | Updated 13 minutes ago

Rain
Rain
70.6 °F
Feels Like 70.6 °F
N
2.0
Wind Variable Wind from West
Gusts 2.0 mph

Today
High -- | Low -- °F
--% Chance of Precip.
Yesterday
High -- | Low -- °F
Precip. -- in
6:40 AM 8:42 PM
Waning Gibbous, 83% visible
Pressure 30.25 in
Visibility 3.0 miles
Clouds Mostly Cloudy 1500 ft
Overcast 3300 ft
Dew Point 69 °F
Humidity 95%
Rainfall 0.79 in
Snow Depth Not available.
UV 0.0 out of 12
Pollen 2.70 out of 12
Air Quality Not available.
Flu Activity Not available.
SPECI KTLH 051814Z 25004KT 3SM TSRA BKN015 OVC033CB 23/21 A3025 RMK AO2 FRQ LTGIC OHD TS OHD MOV NE P0002 T02280211 $

More Conditions Fewer Conditions

Pressure 30.25 in
Visibility 3.0 miles
Clouds Mostly Cloudy 1500 ft
Overcast 3300 ft
Dew Point 69 °F
Humidity 95%
Rainfall 0.79 in
Snow Depth Not available.
UV 0.0 out of 12
Pollen 2.70 out of 12
Air Quality Not available.
Flu Activity Not available.
SPECI KTLH 051814Z 25004KT 3SM TSRA BKN015 OVC033CB 23/21 A3025 RMK AO2 FRQ LTGIC OHD TS OHD MOV NE P0002 T02280211 $

More Conditions Fewer Conditions

10-Day Weather Forecast

×

Almanac

Astronomy

Jul. 05, 2015 Rise Set
Actual Time
Civil Twilight
Nautical Twilight
Astronomical Twilight
Moon
Length of Visible Light
Length of Day
Tomorrow will be .
, % of the Moon is Illuminated

Today's Extremes

State Highs State Lows

Community

WunderPhotos

Upload Photos

1,835,346 photos uploaded!

WunderBlogs® & News

Nearby

Air Quality

  Air Quality AQ Index Pollutant
Not available.

Snow Depth

Station Depth Elevation

Earthquake Activity

City Distance Mag. Time & Date
Minimum magnitude displayed is 2.5.

Coastal Water Temperatures

Place Temperature

Stations

Nearby Weather Stations

Station Location Temp. Windchill Dew Point Humidity Wind Precip. Elev Updated Type